createdAt,value
2022-11-08T00:02:22.421Z,3.50
2022-11-08T00:04:49.115Z,2.92
2022-11-08T00:07:35.692Z,2.42
2022-11-08T00:10:22.242Z,3.08
2022-11-08T00:13:08.774Z,2.85
2022-11-08T00:15:38.611Z,3.00
2022-11-08T00:18:06.303Z,2.22
2022-11-08T00:20:32.936Z,2.80
2022-11-08T00:22:59.562Z,2.92
2022-11-08T00:25:26.134Z,2.70
2022-11-08T00:27:52.694Z,2.70
2022-11-08T00:30:19.395Z,2.50
2022-11-08T00:32:45.961Z,3.25
2022-11-08T00:35:12.574Z,2.65
2022-11-08T00:37:39.165Z,2.67
2022-11-08T00:40:06.733Z,2.90
2022-11-08T00:42:33.385Z,2.65
2022-11-08T00:44:59.987Z,2.85
2022-11-08T00:47:26.569Z,3.22
2022-11-08T00:49:53.183Z,3.40
2022-11-08T00:52:19.805Z,3.03
2022-11-08T00:54:46.485Z,2.42
2022-11-08T00:57:13.144Z,2.53
2022-11-08T00:59:39.722Z,2.65
2022-11-08T01:02:06.454Z,2.95
2022-11-08T01:04:33.113Z,2.90
2022-11-08T01:06:59.675Z,2.40
2022-11-08T01:09:26.249Z,2.58
2022-11-08T01:11:52.909Z,2.40
2022-11-08T01:14:19.505Z,2.53
2022-11-08T01:16:46.087Z,2.10
2022-11-08T01:19:12.651Z,1.92
2022-11-08T01:21:39.307Z,2.60
2022-11-08T01:24:06.263Z,2.15
2022-11-08T01:26:32.849Z,2.40
2022-11-08T01:28:59.457Z,2.20
2022-11-08T01:31:28.852Z,2.13
2022-11-08T01:33:55.696Z,1.52
2022-11-08T01:36:23.673Z,3.63
2022-11-08T01:38:50.669Z,2.17
2022-11-08T01:41:17.502Z,2.58
2022-11-08T01:43:45.658Z,2.67
2022-11-08T01:46:29.741Z,2.67
2022-11-08T01:51:40.448Z,1.80
2022-11-08T01:54:08.197Z,2.00
2022-11-08T01:56:35.334Z,2.03
2022-11-08T01:59:01.947Z,2.50
2022-11-08T02:01:28.659Z,2.15
2022-11-08T02:03:55.262Z,1.90
2022-11-08T02:06:21.859Z,2.05
2022-11-08T02:08:48.465Z,2.38
2022-11-08T02:11:15.333Z,2.42
2022-11-08T02:13:41.912Z,1.83
2022-11-08T02:16:13.910Z,2.05
2022-11-08T02:18:40.625Z,1.58
2022-11-08T02:21:19.995Z,2.70
2022-11-08T02:23:50.624Z,2.08
2022-11-08T02:26:18.283Z,1.65
2022-11-08T02:28:46.901Z,1.80
2022-11-08T02:31:14.942Z,1.83
2022-11-08T02:33:41.900Z,1.50
2022-11-08T02:36:09.479Z,2.17
2022-11-08T02:38:38.845Z,2.40
2022-11-08T02:41:05.563Z,2.33
2022-11-08T02:43:32.237Z,3.33
2022-11-08T02:45:58.978Z,1.55
2022-11-08T02:48:25.665Z,1.48
2022-11-08T02:50:52.887Z,2.50
2022-11-08T02:53:19.469Z,1.90
2022-11-08T02:55:46.193Z,2.33
2022-11-08T02:58:12.801Z,1.90
2022-11-08T03:00:39.766Z,2.10
2022-11-08T03:03:06.414Z,1.73
2022-11-08T03:05:33.146Z,2.60
2022-11-08T03:07:59.699Z,1.52
2022-11-08T03:10:26.851Z,2.20
2022-11-08T03:12:57.301Z,1.77
2022-11-08T03:15:23.996Z,1.95
2022-11-08T03:17:50.645Z,1.73
2022-11-08T03:20:18.247Z,1.70
2022-11-08T03:22:45.980Z,1.73
2022-11-08T03:25:12.712Z,1.88
2022-11-08T03:27:39.286Z,2.25
2022-11-08T03:30:06.904Z,1.92
2022-11-08T03:32:33.559Z,3.13
2022-11-08T03:35:00.884Z,2.67
2022-11-08T03:37:27.489Z,2.22
2022-11-08T03:39:54.110Z,2.55
2022-11-08T03:42:20.711Z,1.98
2022-11-08T03:44:47.352Z,1.90
2022-11-08T03:47:13.916Z,1.73
2022-11-08T03:49:40.537Z,1.80
2022-11-08T03:52:07.133Z,1.95
2022-11-08T03:54:33.733Z,1.80
2022-11-08T03:57:00.368Z,2.22
2022-11-08T03:59:26.957Z,2.05
2022-11-08T04:01:53.633Z,1.80
2022-11-08T04:04:20.399Z,1.85
2022-11-08T04:06:47.036Z,1.95
2022-11-08T04:09:15.556Z,2.10
2022-11-08T04:12:05.623Z,1.92
2022-11-08T04:14:52.172Z,1.80
2022-11-08T04:17:18.847Z,1.42
2022-11-08T04:20:05.331Z,1.70
2022-11-08T04:22:31.892Z,1.73
2022-11-08T04:24:58.504Z,1.85
2022-11-08T04:27:25.119Z,1.85
2022-11-08T04:29:51.801Z,2.60
2022-11-08T04:32:18.373Z,1.90
2022-11-08T04:34:44.917Z,2.15
2022-11-08T04:37:11.491Z,1.83
2022-11-08T04:39:38.105Z,2.35
2022-11-08T04:42:04.781Z,2.63
2022-11-08T04:44:31.323Z,2.67
2022-11-08T04:46:58.878Z,2.08
2022-11-08T04:49:25.492Z,1.90
2022-11-08T04:51:52.072Z,1.80
2022-11-08T04:54:18.607Z,2.35
2022-11-08T04:56:45.187Z,1.80
2022-11-08T04:59:12.403Z,1.70
2022-11-08T05:01:39.485Z,2.70
2022-11-08T05:04:06.276Z,2.58
2022-11-08T05:06:32.920Z,2.25
2022-11-08T05:08:59.807Z,2.08
2022-11-08T05:11:27.701Z,2.13
2022-11-08T05:13:54.598Z,1.75
2022-11-08T05:16:24.168Z,2.15
2022-11-08T05:18:51.355Z,1.70
2022-11-08T05:21:38.723Z,2.38
2022-11-08T05:24:06.272Z,3.10
2022-11-08T05:26:34.734Z,2.58
2022-11-08T05:29:01.375Z,2.47
2022-11-08T05:31:28.005Z,3.22
2022-11-08T05:33:54.695Z,2.53
2022-11-08T05:36:21.322Z,2.28
2022-11-08T05:38:47.984Z,3.15
2022-11-08T05:41:17.171Z,4.65
2022-11-08T05:43:45.486Z,4.75
2022-11-08T05:46:12.131Z,2.70
2022-11-08T05:48:38.795Z,5.38
2022-11-08T05:51:05.505Z,3.33
2022-11-08T05:53:32.204Z,2.30
2022-11-08T05:55:59.519Z,3.05
2022-11-08T05:58:26.944Z,2.00
2022-11-08T06:01:01.703Z,2.60
2022-11-08T06:03:28.963Z,2.42
2022-11-08T06:05:55.872Z,2.05
2022-11-08T06:08:22.618Z,3.85
2022-11-08T06:10:49.214Z,2.35
2022-11-08T06:13:15.806Z,2.50
2022-11-08T06:15:42.345Z,2.17
2022-11-08T06:18:08.976Z,2.65
2022-11-08T06:20:35.547Z,2.25
2022-11-08T06:23:02.145Z,2.75
2022-11-08T06:25:28.762Z,2.47
2022-11-08T06:27:55.364Z,2.58
2022-11-08T06:30:21.933Z,2.58
2022-11-08T06:32:48.508Z,3.05
2022-11-08T06:35:15.201Z,3.53
2022-11-08T06:37:41.792Z,3.15
2022-11-08T06:40:09.289Z,2.72
2022-11-08T06:42:35.938Z,2.88
2022-11-08T06:45:02.590Z,3.10
2022-11-08T06:47:29.175Z,2.15
2022-11-08T06:49:55.804Z,2.95
2022-11-08T06:52:22.397Z,2.53
2022-11-08T06:54:48.988Z,2.72
2022-11-08T06:57:15.584Z,2.88
2022-11-08T06:59:42.235Z,2.10
2022-11-08T07:02:10.513Z,2.45
2022-11-08T07:04:37.382Z,2.40
2022-11-08T07:07:04.062Z,2.50
2022-11-08T07:09:30.623Z,2.10
2022-11-08T07:11:57.309Z,3.05
2022-11-08T07:14:23.906Z,2.55
2022-11-08T07:16:50.488Z,2.90
2022-11-08T07:19:17.118Z,2.40
2022-11-08T07:21:43.734Z,2.45
2022-11-08T07:24:10.431Z,2.50
2022-11-08T07:26:37.058Z,2.25
2022-11-08T07:29:03.828Z,2.13
2022-11-08T07:31:30.445Z,2.45
2022-11-08T07:33:57.052Z,3.72
2022-11-08T07:36:23.649Z,4.10
2022-11-08T07:38:50.240Z,4.88
2022-11-08T07:41:16.874Z,4.30
2022-11-08T07:43:43.539Z,3.88
2022-11-08T07:46:10.176Z,3.83
2022-11-08T07:48:37.292Z,4.07
2022-11-08T07:51:04.039Z,4.03
2022-11-08T07:53:30.684Z,3.53
2022-11-08T07:55:58.146Z,3.72
2022-11-08T07:58:25.081Z,4.50
2022-11-08T08:00:51.745Z,4.50
2022-11-08T08:03:21.726Z,3.65
2022-11-08T08:05:53.625Z,4.30
2022-11-08T08:08:23.347Z,3.72
2022-11-08T08:10:50.033Z,4.68
2022-11-08T08:13:17.147Z,4.30
2022-11-08T08:15:43.995Z,4.07
2022-11-08T08:18:10.836Z,3.85
2022-11-08T08:20:37.927Z,3.63
2022-11-08T08:23:04.621Z,2.25
2022-11-08T08:25:31.636Z,2.00
2022-11-08T08:28:00.661Z,2.08
2022-11-08T08:30:27.797Z,2.33
2022-11-08T08:33:26.289Z,2.80
2022-11-08T08:35:48.371Z,3.90
2022-11-08T08:38:15.625Z,2.55
2022-11-08T08:40:43.796Z,2.20
2022-11-08T08:43:10.469Z,1.95
2022-11-08T08:45:37.651Z,2.03
2022-11-08T08:48:04.512Z,2.03
2022-11-08T08:50:31.830Z,1.80
2022-11-08T08:52:59.544Z,1.42
2022-11-08T08:55:26.289Z,2.30
2022-11-08T08:57:52.927Z,2.60
2022-11-08T09:03:08.457Z,3.13
2022-11-08T09:05:35.404Z,2.55
2022-11-08T09:08:02.028Z,2.30
2022-11-08T09:10:28.711Z,2.03
2022-11-08T09:12:55.383Z,2.35
2022-11-08T09:15:22.154Z,1.83
2022-11-08T09:17:49.015Z,2.15
2022-11-08T09:20:16.040Z,1.30
2022-11-08T09:22:42.671Z,1.70
2022-11-08T09:25:10.374Z,1.70
2022-11-08T09:27:36.989Z,1.60
2022-11-08T09:30:04.322Z,1.52
2022-11-08T09:32:46.532Z,1.77
2022-11-08T09:35:17.530Z,1.63
2022-11-08T09:37:47.114Z,1.65
2022-11-08T09:40:17.959Z,1.73
2022-11-08T09:42:51.941Z,2.35
2022-11-08T09:45:22.659Z,1.73
2022-11-08T09:47:53.090Z,1.80
2022-11-08T09:50:39.558Z,2.30
2022-11-08T09:53:31.615Z,2.50
2022-11-08T09:56:02.532Z,1.98
2022-11-08T09:58:35.825Z,2.45
2022-11-08T10:01:02.778Z,4.15
2022-11-08T10:03:29.407Z,1.92
2022-11-08T10:06:19.890Z,2.65
2022-11-08T10:09:05.862Z,1.67
2022-11-08T10:12:11.318Z,3.55
2022-11-08T10:20:36.438Z,1.60
2022-11-08T10:23:29.588Z,1.63
2022-11-08T10:28:45.512Z,1.77
2022-11-08T10:31:12.617Z,3.60
2022-11-08T10:33:47.898Z,2.28
2022-11-08T10:36:34.984Z,2.70
2022-11-08T10:42:16.321Z,4.10
2022-11-08T10:47:14.009Z,2.33
2022-11-08T10:49:41.893Z,5.47
2022-11-08T10:54:53.082Z,3.80
2022-11-08T10:57:38.740Z,5.50
2022-11-08T11:00:24.542Z,4.47
2022-11-08T11:02:57.060Z,4.20
2022-11-08T11:05:27.574Z,5.13
2022-11-08T11:10:35.517Z,5.40
2022-11-08T11:13:04.870Z,4.32
2022-11-08T11:15:34.021Z,3.63
2022-11-08T11:18:00.647Z,3.22
2022-11-08T11:20:27.356Z,2.40
2022-11-08T11:22:54.023Z,2.95
2022-11-08T11:25:22.557Z,2.95
2022-11-08T11:27:55.316Z,2.72
2022-11-08T11:35:45.410Z,3.50
2022-11-08T11:38:20.333Z,3.17
2022-11-08T11:40:47.338Z,2.95
2022-11-08T11:43:29.727Z,2.70
2022-11-08T11:46:03.710Z,2.75
2022-11-08T11:48:31.849Z,3.45
2022-11-08T11:50:58.963Z,3.10
2022-11-08T11:53:33.041Z,3.42
2022-11-08T11:56:24.063Z,4.55
2022-11-08T11:59:30.523Z,3.28
2022-11-08T12:02:25.942Z,3.13
2022-11-08T12:05:15.717Z,3.22
2022-11-08T12:07:46.965Z,4.53
2022-11-08T12:10:38.489Z,2.78
2022-11-08T12:16:18.125Z,2.28
2022-11-08T12:18:55.166Z,2.33
2022-11-08T12:22:01.649Z,2.67
2022-11-08T12:24:57.551Z,2.47
2022-11-08T12:27:47.375Z,2.10
2022-11-08T12:30:18.112Z,3.13
2022-11-08T12:33:24.610Z,3.10
2022-11-08T12:36:21.158Z,2.42
2022-11-08T12:39:27.939Z,2.22
2022-11-08T12:42:12.642Z,2.10
2022-11-08T12:44:58.658Z,2.42
2022-11-08T12:50:27.677Z,2.00
2022-11-08T12:53:22.115Z,2.45
2022-11-08T12:55:49.357Z,2.40
2022-11-08T12:58:37.431Z,3.28
2022-11-08T13:01:07.456Z,3.13
2022-11-08T13:03:47.572Z,2.80
2022-11-08T13:06:42.621Z,2.35
2022-11-08T13:09:36.084Z,2.45
2022-11-08T13:12:29.030Z,2.10
2022-11-08T13:14:56.116Z,3.05
2022-11-08T13:17:26.672Z,2.38
2022-11-08T13:20:05.885Z,2.83
2022-11-08T13:22:41.159Z,3.65
2022-11-08T13:25:15.097Z,2.90
2022-11-08T13:27:43.700Z,3.70
2022-11-08T13:30:18.208Z,3.80
2022-11-08T13:33:08.892Z,4.22
2022-11-08T13:36:15.787Z,3.97
2022-11-08T13:39:01.520Z,4.47
2022-11-08T13:41:28.649Z,3.25
2022-11-08T13:43:55.896Z,3.53
2022-11-08T13:51:43.858Z,3.55
2022-11-08T13:57:03.208Z,3.80
2022-11-08T14:05:18.913Z,3.00
2022-11-08T14:07:51.451Z,4.35
2022-11-08T14:10:30.781Z,1.92
2022-11-08T14:13:14.540Z,3.42
2022-11-08T14:15:50.139Z,2.88
2022-11-08T14:18:33.322Z,3.05
2022-11-08T14:21:00.019Z,2.63
2022-11-08T14:23:28.692Z,4.47
2022-11-08T14:25:59.740Z,2.72
2022-11-08T14:28:28.736Z,2.20
2022-11-08T14:30:55.764Z,3.85
2022-11-08T14:33:24.256Z,2.45
2022-11-08T14:38:44.871Z,2.30
2022-11-08T14:41:13.518Z,2.28
2022-11-08T14:43:43.490Z,3.35
2022-11-08T14:46:18.140Z,2.63
2022-11-08T14:48:54.209Z,3.60
2022-11-08T14:51:21.130Z,2.67
2022-11-08T14:53:50.566Z,3.38
2022-11-08T14:56:19.341Z,2.75
2022-11-08T14:58:46.521Z,2.70
2022-11-08T15:01:13.710Z,4.05
2022-11-08T15:03:45.442Z,3.63
2022-11-08T15:06:14.283Z,3.70
2022-11-08T15:08:56.148Z,4.28
2022-11-08T15:11:31.054Z,2.20
2022-11-08T15:14:18.761Z,2.95
2022-11-08T15:16:46.654Z,2.67
2022-11-08T15:19:42.629Z,3.97
2022-11-08T15:22:28.958Z,2.38
2022-11-08T15:25:19.570Z,1.95
2022-11-08T15:27:50.079Z,2.75
2022-11-08T15:30:19.174Z,2.97
2022-11-08T15:32:45.761Z,2.95
2022-11-08T15:35:21.750Z,2.83
2022-11-08T15:37:50.577Z,3.65
2022-11-08T15:40:24.265Z,3.97
2022-11-08T15:42:51.486Z,3.95
2022-11-08T15:45:22.953Z,4.07
2022-11-08T15:47:49.869Z,4.32
2022-11-08T15:50:29.982Z,4.45
2022-11-08T15:52:58.355Z,4.03
2022-11-08T15:55:36.164Z,3.45
2022-11-08T15:58:02.914Z,6.95
2022-11-08T16:00:31.815Z,5.65
2022-11-08T16:02:58.555Z,5.25
2022-11-08T16:05:26.702Z,6.18
2022-11-08T16:07:53.516Z,5.13
2022-11-08T16:10:41.066Z,7.25
2022-11-08T16:13:10.103Z,6.95
2022-11-08T16:15:36.859Z,7.15
2022-11-08T16:18:03.771Z,3.72
2022-11-08T16:20:32.155Z,6.20
2022-11-08T16:23:01.498Z,5.97
2022-11-08T16:25:28.648Z,4.15
2022-11-08T16:27:59.484Z,3.83
2022-11-08T16:30:26.212Z,6.47
2022-11-08T16:32:52.880Z,4.05
2022-11-08T16:35:19.473Z,3.63
2022-11-08T16:37:46.225Z,7.55
2022-11-08T16:40:19.507Z,6.07
2022-11-08T16:42:46.752Z,5.57
2022-11-08T16:45:13.725Z,5.68
2022-11-08T16:47:42.626Z,4.90
2022-11-08T16:50:18.122Z,5.10
2022-11-08T16:52:44.729Z,5.00
2022-11-08T16:55:17.435Z,3.78
2022-11-08T16:57:44.743Z,4.60
2022-11-08T17:00:13.741Z,4.32
2022-11-08T17:02:43.570Z,5.35
2022-11-08T17:05:15.610Z,6.82
2022-11-08T17:07:42.183Z,8.32
2022-11-08T17:10:12.504Z,8.07
2022-11-08T17:12:39.103Z,6.15
2022-11-08T17:15:07.887Z,6.22
2022-11-08T17:17:34.456Z,6.43
2022-11-08T17:20:01.107Z,7.00
2022-11-08T17:22:27.717Z,6.18
2022-11-08T17:24:54.322Z,5.80
2022-11-08T17:27:21.009Z,6.75
2022-11-08T17:29:47.733Z,5.85
2022-11-08T17:32:14.349Z,8.13
2022-11-08T17:34:41.565Z,9.40
2022-11-08T17:37:08.222Z,12.73
2022-11-08T17:39:34.875Z,11.68
2022-11-08T17:42:01.539Z,11.38
2022-11-08T17:44:29.433Z,9.93
2022-11-08T17:46:56.084Z,8.35
2022-11-08T17:49:22.727Z,12.25
2022-11-08T17:51:49.334Z,12.98
2022-11-08T17:54:16.334Z,10.07
2022-11-08T17:56:42.970Z,11.10
2022-11-08T17:59:09.610Z,10.00
2022-11-08T18:01:36.359Z,6.75
2022-11-08T18:04:04.250Z,5.15
2022-11-08T18:06:30.984Z,6.78
2022-11-08T18:08:57.890Z,6.85
2022-11-08T18:11:24.505Z,6.13
2022-11-08T18:13:51.104Z,6.68
2022-11-08T18:16:19.588Z,6.63
2022-11-08T18:18:46.487Z,6.85
2022-11-08T18:21:13.241Z,6.57
2022-11-08T18:23:44.642Z,5.78
2022-11-08T18:26:11.597Z,4.60
2022-11-08T18:28:38.648Z,4.75
2022-11-08T18:31:15.212Z,5.80
2022-11-08T18:33:42.109Z,6.22
2022-11-08T18:36:20.599Z,5.15
2022-11-08T18:38:47.928Z,6.65
2022-11-08T18:41:16.541Z,4.43
2022-11-08T18:43:43.171Z,4.57
2022-11-08T18:46:12.998Z,4.65
2022-11-08T18:48:39.822Z,4.10
2022-11-08T18:51:07.606Z,4.00
2022-11-08T18:53:34.294Z,4.00
2022-11-08T18:56:00.952Z,4.60
2022-11-08T18:58:27.660Z,5.80
2022-11-08T19:00:55.103Z,5.45
2022-11-08T19:03:21.945Z,5.43
2022-11-08T19:05:48.533Z,5.40
2022-11-08T19:08:16.426Z,6.30
2022-11-08T19:10:50.974Z,5.68
2022-11-08T19:13:18.879Z,5.60
2022-11-08T19:15:45.765Z,5.28
2022-11-08T19:18:13.031Z,4.78
2022-11-08T19:20:39.601Z,4.93
2022-11-08T19:23:06.182Z,4.75
2022-11-08T19:25:33.708Z,4.53
2022-11-08T19:28:00.296Z,4.82
2022-11-08T19:30:26.978Z,4.57
2022-11-08T19:32:53.538Z,4.35
2022-11-08T19:35:20.179Z,4.00
2022-11-08T19:37:46.779Z,4.63
2022-11-08T19:40:13.366Z,4.45
2022-11-08T19:42:39.934Z,4.07
2022-11-08T19:45:08.001Z,3.70
2022-11-08T19:47:35.061Z,4.07
2022-11-08T19:50:01.665Z,4.05
2022-11-08T19:52:28.265Z,6.65
2022-11-08T19:54:54.934Z,3.58
2022-11-08T19:57:21.543Z,4.25
2022-11-08T19:59:48.222Z,4.20
2022-11-08T20:02:14.943Z,4.18
2022-11-08T20:04:41.634Z,4.13
2022-11-08T20:07:08.371Z,4.32
2022-11-08T20:09:35.697Z,4.28
2022-11-08T20:12:04.470Z,4.63
2022-11-08T20:14:31.073Z,4.43
2022-11-08T20:16:57.725Z,4.43
2022-11-08T20:19:24.455Z,4.15
2022-11-08T20:21:51.960Z,4.45
2022-11-08T20:24:18.830Z,3.47
2022-11-08T20:26:45.448Z,4.32
2022-11-08T20:29:12.330Z,4.20
2022-11-08T20:31:39.163Z,3.55
2022-11-08T20:34:09.834Z,4.03
2022-11-08T20:36:37.939Z,4.40
2022-11-08T20:39:07.376Z,5.40
2022-11-08T20:41:36.683Z,4.57
2022-11-08T20:44:03.374Z,4.28
2022-11-08T20:46:30.564Z,5.25
2022-11-08T20:49:01.182Z,4.47
2022-11-08T20:51:28.818Z,4.70
2022-11-08T20:53:55.812Z,4.88
2022-11-08T20:56:22.895Z,4.65
2022-11-08T20:58:50.102Z,4.80
2022-11-08T21:01:19.211Z,4.25
2022-11-08T21:03:46.037Z,5.07
2022-11-08T21:06:14.985Z,4.45
2022-11-08T21:11:30.077Z,5.30
2022-11-08T21:13:56.706Z,5.57
2022-11-08T21:16:35.387Z,5.40
2022-11-08T21:19:09.288Z,5.30
2022-11-08T21:21:35.963Z,4.88
2022-11-08T21:24:02.582Z,4.90
2022-11-08T21:26:29.354Z,4.55
2022-11-08T21:28:55.981Z,4.72
2022-11-08T21:31:22.764Z,4.63
2022-11-08T21:33:49.325Z,5.55
2022-11-08T21:36:17.265Z,5.18
2022-11-08T21:38:43.976Z,4.97
2022-11-08T21:41:10.731Z,4.72
2022-11-08T21:43:39.013Z,4.63
2022-11-08T21:46:23.026Z,4.47
2022-11-08T21:48:54.201Z,4.35
2022-11-08T21:51:20.936Z,4.18
2022-11-08T21:53:54.835Z,4.05
2022-11-08T21:56:24.780Z,4.78
2022-11-08T21:58:51.698Z,5.07
2022-11-08T22:01:18.558Z,4.60
2022-11-08T22:03:46.128Z,4.57
2022-11-08T22:06:12.872Z,4.18
2022-11-08T22:08:39.512Z,4.75
2022-11-08T22:11:06.477Z,5.72
2022-11-08T22:13:33.356Z,5.30
2022-11-08T22:16:00.421Z,5.78
2022-11-08T22:18:43.392Z,4.70
2022-11-08T22:21:34.106Z,4.20
2022-11-08T22:24:00.780Z,4.03
2022-11-08T22:26:27.498Z,3.25
2022-11-08T22:28:54.097Z,4.38
2022-11-08T22:31:20.740Z,3.40
2022-11-08T22:33:47.706Z,4.22
2022-11-08T22:36:14.576Z,3.72
2022-11-08T22:38:41.155Z,3.33
2022-11-08T22:41:10.820Z,2.88
2022-11-08T22:43:37.525Z,3.53
2022-11-08T22:46:04.217Z,3.90
2022-11-08T22:48:30.912Z,3.30
2022-11-08T22:50:57.935Z,3.75
2022-11-08T22:53:24.644Z,3.13
2022-11-08T22:55:51.656Z,3.83
2022-11-08T22:58:18.730Z,3.03
2022-11-08T23:00:45.656Z,3.78
2022-11-08T23:03:12.673Z,3.50
2022-11-08T23:05:39.583Z,3.83
2022-11-08T23:08:06.534Z,4.90
2022-11-08T23:10:53.305Z,4.05
2022-11-08T23:13:40.043Z,3.83
2022-11-08T23:16:28.054Z,3.25
2022-11-08T23:19:14.602Z,3.55
2022-11-08T23:22:01.268Z,3.80
2022-11-08T23:24:28.075Z,3.30
2022-11-08T23:27:14.597Z,3.20
2022-11-08T23:30:01.204Z,3.50
2022-11-08T23:32:28.048Z,3.30
2022-11-08T23:34:54.988Z,3.40
2022-11-08T23:37:21.706Z,3.05
2022-11-08T23:40:08.880Z,2.67
2022-11-08T23:42:55.624Z,2.85
2022-11-08T23:45:22.470Z,2.38
2022-11-08T23:47:49.332Z,2.70
2022-11-08T23:50:16.189Z,3.20
2022-11-08T23:52:43.050Z,2.67
2022-11-08T23:55:10.196Z,3.42
2022-11-08T23:57:37.159Z,3.55
